sensor_id;sensor_type;location;lat;lon;timestamp;pressure;altitude;pressure_sealevel;temperature;humidity
15884;BME280;8040;50.254;10.960;2022-11-15T00:01:37;98131.84;;;8.41;78.84
15884;BME280;8040;50.254;10.960;2022-11-15T00:04:22;98131.63;;;8.38;78.57
15884;BME280;8040;50.254;10.960;2022-11-15T00:07:06;98122.50;;;8.29;79.04
15884;BME280;8040;50.254;10.960;2022-11-15T00:09:49;98126.81;;;8.30;79.08
15884;BME280;8040;50.254;10.960;2022-11-15T00:12:33;98125.16;;;8.34;78.76
15884;BME280;8040;50.254;10.960;2022-11-15T00:15:17;98124.88;;;8.35;78.55
15884;BME280;8040;50.254;10.960;2022-11-15T00:18:02;98123.84;;;8.31;78.90
15884;BME280;8040;50.254;10.960;2022-11-15T00:20:46;98122.22;;;8.30;79.17
15884;BME280;8040;50.254;10.960;2022-11-15T00:23:30;98118.44;;;8.31;79.08
15884;BME280;8040;50.254;10.960;2022-11-15T00:26:14;98122.00;;;8.27;79.20
15884;BME280;8040;50.254;10.960;2022-11-15T00:28:58;98126.25;;;8.33;78.86
15884;BME280;8040;50.254;10.960;2022-11-15T00:31:42;98118.19;;;8.28;78.92
15884;BME280;8040;50.254;10.960;2022-11-15T00:34:26;98118.47;;;8.26;78.40
15884;BME280;8040;50.254;10.960;2022-11-15T00:37:10;98118.19;;;8.28;78.83
15884;BME280;8040;50.254;10.960;2022-11-15T00:39:54;98120.84;;;8.33;78.57
15884;BME280;8040;50.254;10.960;2022-11-15T00:42:38;98115.44;;;8.33;78.68
15884;BME280;8040;50.254;10.960;2022-11-15T00:45:22;98108.44;;;8.32;78.31
15884;BME280;8040;50.254;10.960;2022-11-15T00:48:06;98115.91;;;8.40;78.38
15884;BME280;8040;50.254;10.960;2022-11-15T00:50:51;98115.31;;;8.43;78.25
15884;BME280;8040;50.254;10.960;2022-11-15T00:53:34;98116.69;;;8.40;78.28
15884;BME280;8040;50.254;10.960;2022-11-15T00:56:18;98121.88;;;8.37;78.34
15884;BME280;8040;50.254;10.960;2022-11-15T00:59:02;98121.88;;;8.37;77.73
15884;BME280;8040;50.254;10.960;2022-11-15T01:01:46;98107.34;;;8.33;77.92
15884;BME280;8040;50.254;10.960;2022-11-15T01:04:30;98121.13;;;8.31;77.79
15884;BME280;8040;50.254;10.960;2022-11-15T01:07:15;98111.16;;;8.32;78.33
15884;BME280;8040;50.254;10.960;2022-11-15T01:09:59;98110.59;;;8.30;78.78
15884;BME280;8040;50.254;10.960;2022-11-15T01:12:43;98099.13;;;8.19;78.86
15884;BME280;8040;50.254;10.960;2022-11-15T01:15:27;98107.34;;;8.33;78.83
15884;BME280;8040;50.254;10.960;2022-11-15T01:18:11;98103.50;;;8.39;78.96
15884;BME280;8040;50.254;10.960;2022-11-15T01:20:55;98094.78;;;8.42;78.34
15884;BME280;8040;50.254;10.960;2022-11-15T01:23:39;98094.72;;;8.47;77.84
15884;BME280;8040;50.254;10.960;2022-11-15T01:26:23;98091.06;;;8.38;78.29
15884;BME280;8040;50.254;10.960;2022-11-15T01:29:07;98083.03;;;8.33;78.50
15884;BME280;8040;50.254;10.960;2022-11-15T01:31:52;98074.91;;;8.33;78.40
15884;BME280;8040;50.254;10.960;2022-11-15T01:34:36;98074.97;;;8.28;78.45
15884;BME280;8040;50.254;10.960;2022-11-15T01:37:20;98068.97;;;8.31;78.78
15884;BME280;8040;50.254;10.960;2022-11-15T01:40:04;98077.41;;;8.29;78.87
15884;BME280;8040;50.254;10.960;2022-11-15T01:42:48;98078.53;;;8.23;78.92
15884;BME280;8040;50.254;10.960;2022-11-15T01:45:32;98067.38;;;8.30;78.51
15884;BME280;8040;50.254;10.960;2022-11-15T01:48:16;98069.41;;;8.14;78.80
15884;BME280;8040;50.254;10.960;2022-11-15T01:51:01;98074.97;;;8.28;79.27
15884;BME280;8040;50.254;10.960;2022-11-15T01:53:47;98052.69;;;8.36;79.57
15884;BME280;8040;50.254;10.960;2022-11-15T01:56:33;98060.25;;;8.39;79.33
15884;BME280;8040;50.254;10.960;2022-11-15T01:59:19;98061.41;;;8.51;79.13
15884;BME280;8040;50.254;10.960;2022-11-15T02:02:03;98064.94;;;8.52;78.56
15884;BME280;8040;50.254;10.960;2022-11-15T02:04:47;98062.22;;;8.52;78.20
15884;BME280;8040;50.254;10.960;2022-11-15T02:07:32;98063.69;;;8.44;79.24
15884;BME280;8040;50.254;10.960;2022-11-15T02:10:18;98054.25;;;8.42;79.64
15884;BME280;8040;50.254;10.960;2022-11-15T02:13:03;98050.44;;;8.43;79.75
15884;BME280;8040;50.254;10.960;2022-11-15T02:16:35;98055.72;;;8.53;80.04
15884;BME280;8040;50.254;10.960;2022-11-15T02:24:56;98039.38;;;8.63;79.46
15884;BME280;8040;50.254;10.960;2022-11-15T02:27:59;98041.41;;;8.71;79.87
15884;BME280;8040;50.254;10.960;2022-11-15T02:31:09;98029.44;;;8.77;79.53
15884;BME280;8040;50.254;10.960;2022-11-15T02:42:52;98023.78;;;8.92;78.17
15884;BME280;8040;50.254;10.960;2022-11-15T02:46:11;98025.50;;;8.88;78.25
15884;BME280;8040;50.254;10.960;2022-11-15T02:48:57;98012.41;;;8.95;78.30
15884;BME280;8040;50.254;10.960;2022-11-15T02:51:42;98004.84;;;8.92;78.26
15884;BME280;8040;50.254;10.960;2022-11-15T02:54:31;98004.78;;;8.97;78.20
15884;BME280;8040;50.254;10.960;2022-11-15T02:57:16;98003.47;;;8.94;78.79
15884;BME280;8040;50.254;10.960;2022-11-15T03:05:40;97992.69;;;9.08;78.36
15884;BME280;8040;50.254;10.960;2022-11-15T03:08:26;97984.28;;;9.09;78.17
15884;BME280;8040;50.254;10.960;2022-11-15T03:11:13;97992.41;;;9.09;78.29
15884;BME280;8040;50.254;10.960;2022-11-15T03:14:02;97995.91;;;9.10;78.43
15884;BME280;8040;50.254;10.960;2022-11-15T03:19:46;97989.50;;;9.19;78.75
15884;BME280;8040;50.254;10.960;2022-11-15T03:22:31;97981.72;;;9.18;78.64
15884;BME280;8040;50.254;10.960;2022-11-15T03:25:18;97980.91;;;9.17;78.65
15884;BME280;8040;50.254;10.960;2022-11-15T03:28:03;97977.22;;;8.95;78.57
15884;BME280;8040;50.254;10.960;2022-11-15T03:30:48;97975.63;;;8.94;78.91
15884;BME280;8040;50.254;10.960;2022-11-15T03:33:33;97971.19;;;8.84;79.75
15884;BME280;8040;50.254;10.960;2022-11-15T03:36:17;97970.38;;;8.84;79.79
15884;BME280;8040;50.254;10.960;2022-11-15T03:39:02;97972.19;;;8.88;79.24
15884;BME280;8040;50.254;10.960;2022-11-15T03:41:50;97973.69;;;8.81;79.63
15884;BME280;8040;50.254;10.960;2022-11-15T03:47:28;97972.44;;;8.73;79.64
15884;BME280;8040;50.254;10.960;2022-11-15T03:50:17;97967.91;;;8.69;79.73
15884;BME280;8040;50.254;10.960;2022-11-15T03:53:02;97972.28;;;8.65;79.96
15884;BME280;8040;50.254;10.960;2022-11-15T03:55:46;97975.59;;;8.62;79.85
15884;BME280;8040;50.254;10.960;2022-11-15T03:58:29;97971.88;;;8.58;80.10
15884;BME280;8040;50.254;10.960;2022-11-15T04:01:13;97982.47;;;8.54;80.30
15884;BME280;8040;50.254;10.960;2022-11-15T04:03:57;97963.59;;;8.49;79.90
15884;BME280;8040;50.254;10.960;2022-11-15T04:06:41;97959.59;;;8.47;79.36
15884;BME280;8040;50.254;10.960;2022-11-15T04:09:25;97961.03;;;8.39;79.76
15884;BME280;8040;50.254;10.960;2022-11-15T04:12:09;97962.97;;;8.39;79.70
15884;BME280;8040;50.254;10.960;2022-11-15T04:14:53;97958.72;;;8.33;80.20
15884;BME280;8040;50.254;10.960;2022-11-15T04:17:54;97966.00;;;8.32;80.03
15884;BME280;8040;50.254;10.960;2022-11-15T04:20:38;97958.66;;;8.38;79.45
15884;BME280;8040;50.254;10.960;2022-11-15T04:23:41;97958.78;;;8.28;79.58
15884;BME280;8040;50.254;10.960;2022-11-15T04:26:44;97942.50;;;8.33;80.15
15884;BME280;8040;50.254;10.960;2022-11-15T04:29:28;97946.88;;;8.29;80.53
15884;BME280;8040;50.254;10.960;2022-11-15T04:32:18;97956.91;;;8.28;80.26
15884;BME280;8040;50.254;10.960;2022-11-15T04:35:02;97949.06;;;8.27;79.96
15884;BME280;8040;50.254;10.960;2022-11-15T04:37:46;97947.69;;;8.29;79.62
15884;BME280;8040;50.254;10.960;2022-11-15T04:40:30;97941.75;;;8.27;79.70
15884;BME280;8040;50.254;10.960;2022-11-15T04:43:14;97940.22;;;8.21;79.67
15884;BME280;8040;50.254;10.960;2022-11-15T04:45:58;97940.56;;;8.15;79.47
15884;BME280;8040;50.254;10.960;2022-11-15T04:48:42;97942.72;;;8.13;79.59
15884;BME280;8040;50.254;10.960;2022-11-15T04:51:26;97943.78;;;8.17;79.90
15884;BME280;8040;50.254;10.960;2022-11-15T04:54:10;97936.78;;;8.16;79.90
15884;BME280;8040;50.254;10.960;2022-11-15T04:56:54;97929.16;;;8.18;79.89
15884;BME280;8040;50.254;10.960;2022-11-15T04:59:38;97926.53;;;8.13;79.83
15884;BME280;8040;50.254;10.960;2022-11-15T05:02:22;97931.72;;;8.09;80.25
15884;BME280;8040;50.254;10.960;2022-11-15T05:05:06;97933.03;;;8.12;79.91
15884;BME280;8040;50.254;10.960;2022-11-15T05:07:50;97921.72;;;8.10;80.12
15884;BME280;8040;50.254;10.960;2022-11-15T05:10:34;97921.94;;;8.13;80.10
15884;BME280;8040;50.254;10.960;2022-11-15T05:13:18;97925.38;;;8.19;80.59
15884;BME280;8040;50.254;10.960;2022-11-15T05:16:02;97924.00;;;8.21;80.30
15884;BME280;8040;50.254;10.960;2022-11-15T05:18:46;97924.53;;;8.23;80.40
15884;BME280;8040;50.254;10.960;2022-11-15T05:21:30;97926.94;;;8.25;80.55
15884;BME280;8040;50.254;10.960;2022-11-15T05:24:14;97926.72;;;8.21;80.57
15884;BME280;8040;50.254;10.960;2022-11-15T05:26:58;97924.53;;;8.23;80.73
15884;BME280;8040;50.254;10.960;2022-11-15T05:29:42;97921.78;;;8.28;80.72
15884;BME280;8040;50.254;10.960;2022-11-15T05:32:27;97920.34;;;8.31;80.77
15884;BME280;8040;50.254;10.960;2022-11-15T05:35:12;97924.47;;;8.28;80.28
15884;BME280;8040;50.254;10.960;2022-11-15T05:37:57;97923.66;;;8.28;80.41
15884;BME280;8040;50.254;10.960;2022-11-15T05:40:41;97916.13;;;8.25;80.30
15884;BME280;8040;50.254;10.960;2022-11-15T05:43:25;97909.66;;;8.26;80.45
15884;BME280;8040;50.254;10.960;2022-11-15T05:46:09;97913.41;;;8.25;79.90
15884;BME280;8040;50.254;10.960;2022-11-15T05:48:53;97910.00;;;8.19;79.77
15884;BME280;8040;50.254;10.960;2022-11-15T05:51:37;97907.34;;;8.14;79.75
15884;BME280;8040;50.254;10.960;2022-11-15T05:54:21;97900.06;;;8.15;79.80
15884;BME280;8040;50.254;10.960;2022-11-15T05:57:06;97891.72;;;8.11;79.39
15884;BME280;8040;50.254;10.960;2022-11-15T05:59:50;97905.44;;;8.15;79.52
15884;BME280;8040;50.254;10.960;2022-11-15T06:02:34;97906.84;;;8.12;79.78
15884;BME280;8040;50.254;10.960;2022-11-15T06:05:18;97911.41;;;8.12;79.37
15884;BME280;8040;50.254;10.960;2022-11-15T06:08:04;97909.03;;;8.10;79.08
15884;BME280;8040;50.254;10.960;2022-11-15T06:10:47;97905.50;;;8.10;79.09
15884;BME280;8040;50.254;10.960;2022-11-15T06:13:32;97913.91;;;8.08;78.85
15884;BME280;8040;50.254;10.960;2022-11-15T06:16:16;97912.59;;;8.06;78.99
15884;BME280;8040;50.254;10.960;2022-11-15T06:19:00;97912.59;;;8.06;79.17
15884;BME280;8040;50.254;10.960;2022-11-15T06:21:44;97916.66;;;8.03;78.92
15884;BME280;8040;50.254;10.960;2022-11-15T06:24:28;97915.13;;;7.97;78.89
15884;BME280;8040;50.254;10.960;2022-11-15T06:27:12;97915.44;;;7.96;78.76
15884;BME280;8040;50.254;10.960;2022-11-15T06:29:56;97912.00;;;7.90;78.87
15884;BME280;8040;50.254;10.960;2022-11-15T06:32:40;97911.81;;;7.82;78.54
15884;BME280;8040;50.254;10.960;2022-11-15T06:35:25;97913.75;;;7.81;78.61
15884;BME280;8040;50.254;10.960;2022-11-15T06:38:09;97912.97;;;7.76;78.65
15884;BME280;8040;50.254;10.960;2022-11-15T06:40:54;97917.59;;;7.75;78.43
15884;BME280;8040;50.254;10.960;2022-11-15T06:43:38;97924.81;;;7.80;78.76
15884;BME280;8040;50.254;10.960;2022-11-15T06:46:22;97931.19;;;7.89;78.34
15884;BME280;8040;50.254;10.960;2022-11-15T06:49:06;97937.03;;;7.96;78.45
15884;BME280;8040;50.254;10.960;2022-11-15T06:51:50;97934.50;;;8.04;78.15
15884;BME280;8040;50.254;10.960;2022-11-15T06:54:36;97932.25;;;8.11;77.57
15884;BME280;8040;50.254;10.960;2022-11-15T06:57:20;97927.56;;;8.17;77.93
15884;BME280;8040;50.254;10.960;2022-11-15T07:00:04;97935.56;;;8.27;78.03
15884;BME280;8040;50.254;10.960;2022-11-15T07:02:48;97929.22;;;8.36;77.06
15884;BME280;8040;50.254;10.960;2022-11-15T07:05:32;97942.06;;;8.44;76.54
15884;BME280;8040;50.254;10.960;2022-11-15T07:08:16;97940.53;;;8.38;76.19
15884;BME280;8040;50.254;10.960;2022-11-15T07:11:01;97936.72;;;8.39;76.32
15884;BME280;8040;50.254;10.960;2022-11-15T07:13:45;97939.75;;;8.38;76.43
15884;BME280;8040;50.254;10.960;2022-11-15T07:16:29;97935.72;;;8.35;76.60
15884;BME280;8040;50.254;10.960;2022-11-15T07:19:13;97928.19;;;8.32;76.79
15884;BME280;8040;50.254;10.960;2022-11-15T07:21:57;97925.69;;;8.36;76.74
15884;BME280;8040;50.254;10.960;2022-11-15T07:24:41;97924.91;;;8.35;77.21
15884;BME280;8040;50.254;10.960;2022-11-15T07:27:25;97918.41;;;8.36;77.35
15884;BME280;8040;50.254;10.960;2022-11-15T07:30:09;97905.88;;;8.40;77.67
15884;BME280;8040;50.254;10.960;2022-11-15T07:32:55;97904.00;;;8.41;77.74
15884;BME280;8040;50.254;10.960;2022-11-15T07:35:39;97907.13;;;8.48;77.82
15884;BME280;8040;50.254;10.960;2022-11-15T07:38:23;97900.34;;;8.50;77.44
15884;BME280;8040;50.254;10.960;2022-11-15T07:41:06;97909.19;;;8.56;77.50
15884;BME280;8040;50.254;10.960;2022-11-15T07:43:51;97912.09;;;8.59;77.40
15884;BME280;8040;50.254;10.960;2022-11-15T07:46:36;97912.81;;;8.65;77.49
15884;BME280;8040;50.254;10.960;2022-11-15T07:49:20;97910.03;;;8.70;77.21
15884;BME280;8040;50.254;10.960;2022-11-15T07:52:04;97920.44;;;8.76;77.36
15884;BME280;8040;50.254;10.960;2022-11-15T07:54:48;97916.28;;;8.84;77.25
15884;BME280;8040;50.254;10.960;2022-11-15T07:57:32;97919.41;;;8.91;77.47
15884;BME280;8040;50.254;10.960;2022-11-15T08:00:16;97922.22;;;8.99;77.30
15884;BME280;8040;50.254;10.960;2022-11-15T08:03:09;97910.84;;;9.02;76.86
15884;BME280;8040;50.254;10.960;2022-11-15T08:05:54;97893.88;;;8.97;76.41
15884;BME280;8040;50.254;10.960;2022-11-15T08:08:38;97913.66;;;9.11;76.15
15884;BME280;8040;50.254;10.960;2022-11-15T08:11:22;97901.72;;;9.12;76.02
15884;BME280;8040;50.254;10.960;2022-11-15T08:14:08;97889.72;;;9.18;76.21
15884;BME280;8040;50.254;10.960;2022-11-15T08:16:52;97877.28;;;9.17;75.71
15884;BME280;8040;50.254;10.960;2022-11-15T08:19:37;97905.16;;;9.31;75.87
15884;BME280;8040;50.254;10.960;2022-11-15T08:22:22;97889.50;;;9.28;74.99
15884;BME280;8040;50.254;10.960;2022-11-15T08:25:06;97904.47;;;9.39;75.14
15884;BME280;8040;50.254;10.960;2022-11-15T08:27:57;97914.81;;;9.50;74.21
15884;BME280;8040;50.254;10.960;2022-11-15T08:30:42;97904.19;;;9.54;73.66
15884;BME280;8040;50.254;10.960;2022-11-15T08:33:27;97894.94;;;9.55;73.27
15884;BME280;8040;50.254;10.960;2022-11-15T08:36:14;97891.34;;;9.59;72.97
15884;BME280;8040;50.254;10.960;2022-11-15T08:38:58;97900.84;;;9.70;72.69
15884;BME280;8040;50.254;10.960;2022-11-15T08:41:42;97888.53;;;9.78;72.60
15884;BME280;8040;50.254;10.960;2022-11-15T08:44:26;97883.69;;;9.88;72.68
15884;BME280;8040;50.254;10.960;2022-11-15T08:47:11;97877.34;;;9.93;72.45
15884;BME280;8040;50.254;10.960;2022-11-15T08:49:56;97886.66;;;10.14;72.42
15884;BME280;8040;50.254;10.960;2022-11-15T08:52:40;97876.22;;;10.21;71.39
15884;BME280;8040;50.254;10.960;2022-11-15T08:55:24;97884.09;;;10.31;70.30
15884;BME280;8040;50.254;10.960;2022-11-15T08:58:08;97877.09;;;10.30;69.69
15884;BME280;8040;50.254;10.960;2022-11-15T09:00:52;97863.41;;;10.35;68.51
15884;BME280;8040;50.254;10.960;2022-11-15T09:03:36;97864.72;;;10.37;68.46
15884;BME280;8040;50.254;10.960;2022-11-15T09:06:20;97859.66;;;10.44;68.05
15884;BME280;8040;50.254;10.960;2022-11-15T09:09:04;97844.69;;;10.47;68.15
15884;BME280;8040;50.254;10.960;2022-11-15T09:11:48;97853.84;;;10.59;67.43
15884;BME280;8040;50.254;10.960;2022-11-15T09:14:32;97864.94;;;10.71;67.09
15884;BME280;8040;50.254;10.960;2022-11-15T09:17:16;97855.91;;;10.76;67.15
15884;BME280;8040;50.254;10.960;2022-11-15T09:20:00;97862.28;;;10.80;66.41
15884;BME280;8040;50.254;10.960;2022-11-15T09:22:44;97860.34;;;10.72;65.96
15884;BME280;8040;50.254;10.960;2022-11-15T09:25:29;97865.34;;;10.78;66.31
15884;BME280;8040;50.254;10.960;2022-11-15T09:28:13;97850.84;;;10.83;65.72
15884;BME280;8040;50.254;10.960;2022-11-15T09:30:58;97849.94;;;10.96;65.75
15884;BME280;8040;50.254;10.960;2022-11-15T09:33:44;97846.13;;;10.97;65.42
15884;BME280;8040;50.254;10.960;2022-11-15T09:36:28;97855.59;;;11.08;65.27
15884;BME280;8040;50.254;10.960;2022-11-15T09:39:12;97844.09;;;11.11;65.09
15884;BME280;8040;50.254;10.960;2022-11-15T09:51:04;97832.72;;;11.31;64.71
15884;BME280;8040;50.254;10.960;2022-11-15T09:54:05;97827.13;;;11.36;64.87
15884;BME280;8040;50.254;10.960;2022-11-15T09:56:56;97827.31;;;11.48;64.35
15884;BME280;8040;50.254;10.960;2022-11-15T09:59:59;97820.78;;;11.49;63.74
15884;BME280;8040;50.254;10.960;2022-11-15T10:05:50;97822.63;;;11.62;62.33
15884;BME280;8040;50.254;10.960;2022-11-15T10:11:26;97803.78;;;11.74;62.39
15884;BME280;8040;50.254;10.960;2022-11-15T10:14:20;97801.41;;;11.81;62.27
15884;BME280;8040;50.254;10.960;2022-11-15T10:20:27;97788.44;;;11.95;61.67
15884;BME280;8040;50.254;10.960;2022-11-15T10:23:15;97797.88;;;12.06;61.59
15884;BME280;8040;50.254;10.960;2022-11-15T10:26:00;97793.44;;;12.10;61.10
15884;BME280;8040;50.254;10.960;2022-11-15T10:28:44;97784.59;;;11.96;60.60
15884;BME280;8040;50.254;10.960;2022-11-15T10:31:30;97772.94;;;11.95;60.58
15884;BME280;8040;50.254;10.960;2022-11-15T10:34:17;97778.72;;;12.11;60.70
15884;BME280;8040;50.254;10.960;2022-11-15T10:37:05;97763.84;;;12.08;60.42
15884;BME280;8040;50.254;10.960;2022-11-15T10:40:04;97771.19;;;12.25;60.00
15884;BME280;8040;50.254;10.960;2022-11-15T10:43:03;97760.63;;;12.23;59.55
15884;BME280;8040;50.254;10.960;2022-11-15T10:45:47;97761.09;;;12.34;59.44
15884;BME280;8040;50.254;10.960;2022-11-15T10:48:33;97752.59;;;12.35;59.18
15884;BME280;8040;50.254;10.960;2022-11-15T10:51:23;97753.56;;;12.39;59.27
15884;BME280;8040;50.254;10.960;2022-11-15T10:54:12;97762.66;;;12.52;59.24
15884;BME280;8040;50.254;10.960;2022-11-15T10:56:59;97761.19;;;12.54;58.79
15884;BME280;8040;50.254;10.960;2022-11-15T10:59:51;97757.69;;;12.54;58.67
15884;BME280;8040;50.254;10.960;2022-11-15T11:02:37;97741.53;;;12.57;58.48
15884;BME280;8040;50.254;10.960;2022-11-15T11:05:37;97734.16;;;12.58;58.04
15884;BME280;8040;50.254;10.960;2022-11-15T11:08:24;97737.34;;;12.68;58.17
15884;BME280;8040;50.254;10.960;2022-11-15T11:11:08;97729.66;;;12.62;58.07
15884;BME280;8040;50.254;10.960;2022-11-15T11:13:52;97728.34;;;12.76;58.15
15884;BME280;8040;50.254;10.960;2022-11-15T11:16:42;97717.41;;;12.85;58.47
15884;BME280;8040;50.254;10.960;2022-11-15T11:22:49;97718.38;;;12.89;57.76
15884;BME280;8040;50.254;10.960;2022-11-15T11:26:12;97699.09;;;12.94;57.53
15884;BME280;8040;50.254;10.960;2022-11-15T11:34:56;97701.28;;;13.17;57.58
15884;BME280;8040;50.254;10.960;2022-11-15T11:37:58;97694.25;;;13.16;57.51
15884;BME280;8040;50.254;10.960;2022-11-15T11:46:53;97690.00;;;13.27;57.56
15884;BME280;8040;50.254;10.960;2022-11-15T11:49:49;97675.84;;;13.34;57.76
15884;BME280;8040;50.254;10.960;2022-11-15T11:55:32;97689.03;;;13.73;58.09
15884;BME280;8040;50.254;10.960;2022-11-15T12:01:20;97675.41;;;13.73;56.13
15884;BME280;8040;50.254;10.960;2022-11-15T12:04:29;97677.28;;;13.81;56.82
15884;BME280;8040;50.254;10.960;2022-11-15T12:07:20;97673.22;;;13.87;55.93
15884;BME280;8040;50.254;10.960;2022-11-15T12:10:23;97666.69;;;13.79;55.65
15884;BME280;8040;50.254;10.960;2022-11-15T12:13:13;97665.63;;;13.72;55.58
15884;BME280;8040;50.254;10.960;2022-11-15T12:16:06;97664.50;;;13.73;56.00
15884;BME280;8040;50.254;10.960;2022-11-15T12:18:53;97672.22;;;13.71;55.89
15884;BME280;8040;50.254;10.960;2022-11-15T12:24:34;97654.47;;;13.65;56.15
15884;BME280;8040;50.254;10.960;2022-11-15T12:27:39;97642.75;;;13.64;56.09
15884;BME280;8040;50.254;10.960;2022-11-15T12:30:38;97653.13;;;13.71;56.23
15884;BME280;8040;50.254;10.960;2022-11-15T12:36:35;97644.75;;;13.76;56.67
15884;BME280;8040;50.254;10.960;2022-11-15T12:39:20;97635.00;;;13.75;56.24
15884;BME280;8040;50.254;10.960;2022-11-15T12:47:33;97636.19;;;13.98;55.54
15884;BME280;8040;50.254;10.960;2022-11-15T12:53:50;97620.34;;;14.12;54.81
15884;BME280;8040;50.254;10.960;2022-11-15T12:56:34;97606.47;;;14.05;54.60
15884;BME280;8040;50.254;10.960;2022-11-15T12:59:59;97629.06;;;14.38;54.47
15884;BME280;8040;50.254;10.960;2022-11-15T13:02:43;97612.00;;;14.41;53.98
15884;BME280;8040;50.254;10.960;2022-11-15T13:08:43;97614.31;;;14.51;53.73
15884;BME280;8040;50.254;10.960;2022-11-15T13:11:46;97617.13;;;14.42;53.57
15884;BME280;8040;50.254;10.960;2022-11-15T13:17:36;97603.34;;;14.27;54.00
15884;BME280;8040;50.254;10.960;2022-11-15T13:20:28;97608.34;;;14.25;54.25
15884;BME280;8040;50.254;10.960;2022-11-15T13:23:15;97604.75;;;14.12;54.68
15884;BME280;8040;50.254;10.960;2022-11-15T13:26:12;97590.13;;;14.05;54.79
15884;BME280;8040;50.254;10.960;2022-11-15T13:28:56;97602.53;;;14.14;55.48
15884;BME280;8040;50.254;10.960;2022-11-15T13:31:42;97594.88;;;14.08;55.26
15884;BME280;8040;50.254;10.960;2022-11-15T13:34:33;97591.00;;;14.09;55.63
15884;BME280;8040;50.254;10.960;2022-11-15T13:40:35;97591.59;;;14.02;56.44
15884;BME280;8040;50.254;10.960;2022-11-15T13:43:34;97580.56;;;13.99;56.45
15884;BME280;8040;50.254;10.960;2022-11-15T13:46:27;97576.09;;;13.94;56.88
15884;BME280;8040;50.254;10.960;2022-11-15T13:49:11;97558.22;;;13.85;57.11
15884;BME280;8040;50.254;10.960;2022-11-15T13:51:55;97557.09;;;13.74;57.60
15884;BME280;8040;50.254;10.960;2022-11-15T13:54:59;97564.13;;;13.75;58.11
15884;BME280;8040;50.254;10.960;2022-11-15T13:58:00;97550.50;;;13.75;58.03
15884;BME280;8040;50.254;10.960;2022-11-15T14:00:59;97548.09;;;13.73;58.44
15884;BME280;8040;50.254;10.960;2022-11-15T14:03:59;97549.47;;;13.79;58.68
15884;BME280;8040;50.254;10.960;2022-11-15T14:06:46;97549.16;;;13.81;58.81
15884;BME280;8040;50.254;10.960;2022-11-15T14:09:41;97535.41;;;13.77;58.91
15884;BME280;8040;50.254;10.960;2022-11-15T14:12:30;97548.47;;;13.84;59.12
15884;BME280;8040;50.254;10.960;2022-11-15T14:15:31;97550.75;;;13.82;59.40
15884;BME280;8040;50.254;10.960;2022-11-15T14:18:48;97549.16;;;13.81;60.06
15884;BME280;8040;50.254;10.960;2022-11-15T14:21:33;97535.72;;;13.76;60.07
15884;BME280;8040;50.254;10.960;2022-11-15T14:24:21;97542.78;;;13.77;60.36
15884;BME280;8040;50.254;10.960;2022-11-15T14:27:23;97534.81;;;13.72;60.52
15884;BME280;8040;50.254;10.960;2022-11-15T14:30:15;97532.41;;;13.70;60.04
15884;BME280;8040;50.254;10.960;2022-11-15T14:33:01;97532.88;;;13.72;59.82
15884;BME280;8040;50.254;10.960;2022-11-15T14:35:46;97525.25;;;13.66;60.06
15884;BME280;8040;50.254;10.960;2022-11-15T14:38:30;97524.34;;;13.62;60.58
15884;BME280;8040;50.254;10.960;2022-11-15T14:41:22;97538.75;;;13.62;61.15
15884;BME280;8040;50.254;10.960;2022-11-15T14:44:10;97521.81;;;13.57;60.72
15884;BME280;8040;50.254;10.960;2022-11-15T14:46:54;97519.75;;;13.54;61.48
15884;BME280;8040;50.254;10.960;2022-11-15T14:49:38;97528.50;;;13.47;61.85
15884;BME280;8040;50.254;10.960;2022-11-15T14:52:28;97523.50;;;13.49;62.20
15884;BME280;8040;50.254;10.960;2022-11-15T14:58:04;97512.44;;;13.34;63.09
15884;BME280;8040;50.254;10.960;2022-11-15T15:00:51;97517.19;;;13.37;62.75
15884;BME280;8040;50.254;10.960;2022-11-15T15:03:34;97501.72;;;13.29;63.48
15884;BME280;8040;50.254;10.960;2022-11-15T15:06:19;97507.78;;;13.34;63.94
15884;BME280;8040;50.254;10.960;2022-11-15T15:09:03;97492.63;;;13.25;63.59
15884;BME280;8040;50.254;10.960;2022-11-15T15:11:47;97492.91;;;13.32;64.34
15884;BME280;8040;50.254;10.960;2022-11-15T15:14:31;97487.88;;;13.22;64.96
15884;BME280;8040;50.254;10.960;2022-11-15T15:17:16;97489.13;;;13.24;64.74
15884;BME280;8040;50.254;10.960;2022-11-15T15:20:00;97480.72;;;13.17;65.66
15884;BME280;8040;50.254;10.960;2022-11-15T15:22:44;97483.75;;;13.16;65.95
15884;BME280;8040;50.254;10.960;2022-11-15T15:25:31;97480.47;;;13.10;66.53
15884;BME280;8040;50.254;10.960;2022-11-15T15:28:16;97485.53;;;13.12;66.23
15884;BME280;8040;50.254;10.960;2022-11-15T15:31:01;97480.78;;;13.09;66.85
15884;BME280;8040;50.254;10.960;2022-11-15T15:33:45;97481.22;;;13.11;66.84
15884;BME280;8040;50.254;10.960;2022-11-15T15:36:29;97479.44;;;13.15;67.17
15884;BME280;8040;50.254;10.960;2022-11-15T15:39:13;97474.88;;;13.07;66.72
15884;BME280;8040;50.254;10.960;2022-11-15T15:41:59;97478.84;;;13.09;67.21
15884;BME280;8040;50.254;10.960;2022-11-15T15:44:43;97468.69;;;12.98;67.18
15884;BME280;8040;50.254;10.960;2022-11-15T15:47:27;97478.00;;;12.97;67.50
15884;BME280;8040;50.254;10.960;2022-11-15T15:50:24;97468.09;;;12.92;68.53
15884;BME280;8040;50.254;10.960;2022-11-15T15:53:10;97466.16;;;12.93;68.20
15884;BME280;8040;50.254;10.960;2022-11-15T15:55:54;97467.97;;;12.89;69.09
15884;BME280;8040;50.254;10.960;2022-11-15T15:58:38;97457.59;;;12.82;69.02
15884;BME280;8040;50.254;10.960;2022-11-15T16:01:22;97470.63;;;12.77;69.14
15884;BME280;8040;50.254;10.960;2022-11-15T16:04:07;97472.97;;;12.78;69.67
15884;BME280;8040;50.254;10.960;2022-11-15T16:06:51;97464.88;;;12.70;70.13
15884;BME280;8040;50.254;10.960;2022-11-15T16:09:38;97462.38;;;12.65;70.52
15884;BME280;8040;50.254;10.960;2022-11-15T16:12:42;97448.97;;;12.60;70.79
15884;BME280;8040;50.254;10.960;2022-11-15T16:15:30;97459.19;;;12.63;71.05
15884;BME280;8040;50.254;10.960;2022-11-15T16:18:16;97442.47;;;12.52;70.84
15884;BME280;8040;50.254;10.960;2022-11-15T16:21:01;97426.41;;;12.39;70.93
15884;BME280;8040;50.254;10.960;2022-11-15T16:23:45;97440.75;;;12.48;71.42
15884;BME280;8040;50.254;10.960;2022-11-15T16:26:29;97431.84;;;12.39;71.27